Augusta, Texas
Current Conditions -  °F | °C
As of 10:55 PM on Friday 24 Oct 2014 (Local Time) from KDKR Reporting Station
Clear Clear  
Wind Chill: 17°   Ceiling: Unl
Heat Index: 17°   Visibility: 10mi
Dew Point: 16°   Wind: 3mph
Humidity: 94%   Direction: 140°SE
Pressure: 30.17"   Gusts: NA
Location:  31.4982°N, 95.4177°W
Report Text: KDKR 250355Z AUTO 14003KT 10SM CLR 17/16 A3017 RMK AO2
Loading
Personal Weather Stations






























Interactive Weather Map
Tropical Storm Tracking
New forecast layout! Learn more

10-Day Weather Forecast

Advertisements
Track Severe Weather on mobile